UCSB Student Dorm Boxes, California
Current Conditions -  °F | °C
As of 4:53 PM on Thursday 27 Nov 2014 (Local Time) from KSBA Reporting Station
Few Clouds Few Clouds  
Wind Chill: 67°   Ceiling: Unl
Heat Index: 67°   Visibility: 10mi
Dew Point: 50°   Wind: 0mph
Humidity: 54%   Direction: NA
Pressure: 30"   Gusts: NA
Location:  34.4564°N, 119.867°W
Report Text: KSBA 280053Z 00000KT 10SM FEW250 19/10 A3000 RMK AO2 SLP158 T01940100
Loading
Personal Weather Stations






























Interactive Weather Map New forecast layout! Learn more

10-Day Weather Forecast

Advertisements
Track Severe Weather on mobile